createdAt,value
2023-04-14T00:01:48.745Z,1.88
2023-04-14T00:06:42.070Z,1.85
2023-04-14T00:11:37.050Z,1.80
2023-04-14T00:16:33.206Z,1.92
2023-04-14T00:21:27.414Z,1.80
2023-04-14T00:26:21.301Z,1.98
2023-04-14T00:31:16.115Z,1.60
2023-04-14T00:36:11.121Z,1.83
2023-04-14T00:41:04.557Z,1.83
2023-04-14T00:45:58.874Z,1.60
2023-04-14T00:50:51.668Z,1.80
2023-04-14T00:55:45.387Z,1.85
2023-04-14T01:00:38.547Z,1.52
2023-04-14T01:05:32.957Z,1.83
2023-04-14T01:10:31.938Z,2.70
2023-04-14T01:15:34.518Z,1.75
2023-04-14T01:20:34.273Z,1.92
2023-04-14T01:25:46.213Z,1.40
2023-04-14T01:31:04.048Z,1.40
2023-04-14T01:35:58.112Z,1.30
2023-04-14T01:40:54.829Z,1.40
2023-04-14T01:45:52.048Z,1.92
2023-04-14T01:50:44.981Z,1.63
2023-04-14T01:55:39.010Z,1.73
2023-04-14T02:00:33.162Z,1.30
2023-04-14T02:05:28.402Z,1.50
2023-04-14T02:10:22.732Z,1.90
2023-04-14T02:15:18.795Z,2.50
2023-04-14T02:20:14.447Z,3.33
2023-04-14T02:25:07.840Z,2.63
2023-04-14T02:30:02.931Z,2.40
2023-04-14T02:35:09.767Z,2.40
2023-04-14T02:40:05.382Z,2.65
2023-04-14T02:45:03.105Z,2.65
2023-04-14T02:49:57.795Z,2.22
2023-04-14T02:54:51.728Z,2.25
2023-04-14T02:59:46.924Z,2.17
2023-04-14T03:04:42.492Z,2.22
2023-04-14T03:09:42.926Z,2.40
2023-04-14T03:14:37.315Z,3.03
2023-04-14T03:19:30.836Z,2.45
2023-04-14T03:24:28.391Z,2.83
2023-04-14T03:29:21.749Z,2.53
2023-04-14T03:34:15.624Z,2.13
2023-04-14T03:39:15.066Z,2.28
2023-04-14T03:44:15.999Z,2.25
2023-04-14T03:49:12.584Z,2.17
2023-04-14T03:54:07.445Z,2.10
2023-04-14T03:59:01.927Z,1.88
2023-04-14T04:04:01.090Z,1.90
2023-04-14T04:08:54.359Z,1.60
2023-04-14T04:13:49.400Z,1.92
2023-04-14T04:18:47.270Z,2.40
2023-04-14T04:23:42.955Z,1.47
2023-04-14T04:28:36.711Z,1.10
2023-04-14T04:33:30.394Z,0.88
2023-04-14T04:38:23.676Z,1.35
2023-04-14T04:43:22.258Z,1.38
2023-04-14T04:48:16.214Z,1.00
2023-04-14T04:53:10.690Z,1.10
2023-04-14T04:58:03.194Z,1.20
2023-04-14T05:02:56.960Z,0.82
2023-04-14T05:07:50.963Z,1.08
2023-04-14T05:12:43.573Z,1.25
2023-04-14T05:17:37.801Z,0.93
2023-04-14T05:22:32.915Z,1.42
2023-04-14T05:27:27.080Z,1.10
2023-04-14T05:32:21.431Z,1.60
2023-04-14T05:37:14.374Z,2.25
2023-04-14T05:42:10.506Z,2.58
2023-04-14T05:47:03.784Z,2.33
2023-04-14T05:51:57.557Z,1.85
2023-04-14T05:56:51.585Z,1.77
2023-04-14T06:01:49.451Z,1.40
2023-04-14T06:06:43.099Z,1.40
2023-04-14T06:11:38.224Z,1.70
2023-04-14T06:16:31.434Z,2.13
2023-04-14T06:21:25.750Z,1.90
2023-04-14T06:26:19.077Z,1.75
2023-04-14T06:31:15.040Z,2.83
2023-04-14T06:36:09.415Z,2.20
2023-04-14T06:41:02.940Z,2.53
2023-04-14T06:45:56.208Z,2.13
2023-04-14T06:50:56.400Z,2.95
2023-04-14T06:55:59.577Z,3.35
2023-04-14T07:01:16.378Z,2.55
2023-04-14T07:06:12.359Z,3.10
2023-04-14T07:11:07.120Z,3.30
2023-04-14T07:16:02.448Z,4.63
2023-04-14T07:20:54.634Z,5.10
2023-04-14T07:25:55.924Z,5.05
2023-04-14T07:30:50.151Z,3.78
2023-04-14T07:35:54.441Z,2.30
2023-04-14T07:40:53.591Z,1.80
2023-04-14T07:45:47.929Z,5.88
2023-04-14T07:50:41.544Z,5.55
2023-04-14T07:55:33.846Z,4.15
2023-04-14T08:00:27.803Z,3.95
2023-04-14T08:05:25.030Z,4.63
2023-04-14T08:10:18.033Z,3.55
2023-04-14T08:15:12.770Z,3.75
2023-04-14T08:20:07.641Z,3.03
2023-04-14T08:25:02.180Z,3.40
2023-04-14T08:29:55.136Z,3.00
2023-04-14T08:35:39.150Z,3.70
2023-04-14T08:40:01.145Z,3.83
2023-04-14T08:44:55.172Z,4.22
2023-04-14T08:49:53.131Z,5.43
2023-04-14T08:54:46.900Z,6.45
2023-04-14T08:59:42.239Z,6.68
2023-04-14T09:04:38.296Z,6.30
2023-04-14T09:09:32.284Z,5.35
2023-04-14T09:14:25.634Z,5.05
2023-04-14T09:19:19.283Z,5.53
2023-04-14T09:24:13.371Z,4.65
2023-04-14T09:29:07.237Z,4.05
2023-04-14T09:34:00.679Z,5.30
2023-04-14T09:38:54.198Z,4.75
2023-04-14T09:43:47.411Z,4.10
2023-04-14T09:48:57.345Z,3.00
2023-04-14T09:53:50.960Z,3.20
2023-04-14T09:58:45.629Z,2.90
2023-04-14T10:03:46.427Z,2.55
2023-04-14T10:08:41.908Z,3.05
2023-04-14T10:13:35.809Z,2.97
2023-04-14T10:18:28.787Z,1.30
2023-04-14T10:23:21.952Z,1.35
2023-04-14T10:28:14.882Z,0.90
2023-04-14T10:33:09.190Z,0.98
2023-04-14T10:38:05.448Z,0.80
2023-04-14T10:42:57.953Z,0.90
2023-04-14T10:47:51.647Z,1.92
2023-04-14T10:52:56.083Z,11.32
2023-04-14T10:57:48.989Z,1.50
2023-04-14T11:02:55.439Z,1.55
2023-04-14T11:07:50.848Z,0.80
2023-04-14T11:12:44.603Z,0.80
2023-04-14T11:17:44.403Z,1.40
2023-04-14T11:22:41.893Z,2.58
2023-04-14T11:27:35.029Z,1.27
2023-04-14T11:32:28.749Z,0.43
2023-04-14T11:37:22.651Z,0.60
2023-04-14T11:42:15.808Z,0.45
2023-04-14T11:47:08.944Z,0.50
2023-04-14T11:52:08.252Z,0.70
2023-04-14T11:57:01.698Z,0.47
2023-04-14T12:01:58.695Z,0.43
2023-04-14T12:06:53.171Z,0.35
2023-04-14T12:11:55.824Z,0.40
2023-04-14T12:16:48.740Z,0.52
2023-04-14T12:21:42.222Z,0.52
2023-04-14T12:26:37.371Z,0.40
2023-04-14T12:31:31.536Z,0.38
2023-04-14T12:37:48.324Z,0.22
2023-04-14T12:41:40.680Z,0.50
2023-04-14T12:46:35.099Z,0.32
2023-04-14T12:51:27.927Z,0.30
2023-04-14T12:56:24.845Z,0.40
2023-04-14T13:01:22.856Z,0.30
2023-04-14T13:06:17.022Z,0.50
2023-04-14T13:11:10.371Z,0.43
2023-04-14T13:16:13.448Z,0.40
2023-04-14T13:21:07.422Z,0.50
2023-04-14T13:26:01.263Z,0.30
2023-04-14T13:30:56.293Z,0.20
2023-04-14T13:35:50.228Z,0.43
2023-04-14T13:40:44.662Z,0.40
2023-04-14T13:45:39.671Z,0.40
2023-04-14T13:50:32.388Z,0.50
2023-04-14T13:55:25.709Z,0.40
2023-04-14T14:00:19.576Z,0.30
2023-04-14T14:05:15.565Z,0.50
2023-04-14T14:10:11.039Z,0.30
2023-04-14T14:15:05.932Z,0.40
2023-04-14T14:19:59.434Z,0.40
2023-04-14T14:24:55.083Z,0.40
2023-04-14T14:29:51.971Z,0.30
2023-04-14T14:34:48.260Z,0.43
2023-04-14T14:39:41.929Z,0.60
2023-04-14T14:44:35.365Z,0.30
2023-04-14T14:49:28.094Z,0.43
2023-04-14T14:54:21.661Z,0.47
2023-04-14T14:59:15.341Z,0.50
2023-04-14T15:04:08.101Z,0.60
2023-04-14T15:09:01.135Z,0.65
2023-04-14T15:14:01.214Z,0.50
2023-04-14T15:18:54.579Z,0.50
2023-04-14T15:23:47.569Z,0.50
2023-04-14T15:28:39.914Z,0.80
2023-04-14T15:33:33.829Z,0.50
2023-04-14T15:38:27.365Z,0.50
2023-04-14T15:43:20.900Z,0.47
2023-04-14T15:48:14.560Z,0.60
2023-04-14T15:53:08.676Z,0.60
2023-04-14T15:58:02.767Z,0.90
2023-04-14T16:02:56.802Z,0.80
2023-04-14T16:07:52.332Z,0.68
2023-04-14T16:12:46.060Z,0.90
2023-04-14T16:17:40.141Z,0.63
2023-04-14T16:22:34.616Z,0.60
2023-04-14T16:27:28.344Z,0.73
2023-04-14T16:32:21.611Z,0.80
2023-04-14T16:37:14.694Z,0.60
2023-04-14T16:42:10.056Z,0.70
2023-04-14T16:47:02.807Z,0.82
2023-04-14T16:51:57.667Z,0.95
2023-04-14T16:56:50.608Z,0.90
2023-04-14T17:01:44.885Z,0.60
2023-04-14T17:06:38.606Z,1.70
2023-04-14T17:11:33.807Z,0.80
2023-04-14T17:16:27.814Z,0.57
2023-04-14T17:21:20.785Z,0.80
2023-04-14T17:26:15.338Z,0.73
2023-04-14T17:31:13.644Z,1.00
2023-04-14T17:36:06.734Z,1.00
2023-04-14T17:41:00.063Z,1.52
2023-04-14T17:45:53.160Z,2.35
2023-04-14T17:50:46.492Z,0.93
2023-04-14T17:55:39.817Z,0.80
2023-04-14T18:00:31.610Z,0.90
2023-04-14T18:05:25.723Z,1.42
2023-04-14T18:10:20.172Z,1.20
2023-04-14T18:15:15.975Z,1.08
2023-04-14T18:20:11.646Z,0.80
2023-04-14T18:25:05.545Z,1.58
2023-04-14T18:29:59.736Z,1.00
2023-04-14T18:34:53.845Z,1.00
2023-04-14T18:39:46.982Z,0.80
2023-04-14T18:44:39.986Z,1.20
2023-04-14T18:49:33.536Z,0.77
2023-04-14T18:54:26.782Z,1.35
2023-04-14T18:59:20.283Z,1.70
2023-04-14T19:04:15.644Z,0.98
2023-04-14T19:09:09.194Z,0.80
2023-04-14T19:14:06.028Z,2.75
2023-04-14T19:18:59.818Z,0.98
2023-04-14T19:23:54.978Z,0.65
2023-04-14T19:28:47.984Z,0.85
2023-04-14T19:33:42.594Z,0.80
2023-04-14T19:38:35.812Z,0.80
2023-04-14T19:43:30.024Z,0.65
2023-04-14T19:48:24.286Z,0.80
2023-04-14T19:53:18.204Z,0.80
2023-04-14T19:58:13.308Z,0.82
2023-04-14T20:03:07.202Z,0.63
2023-04-14T20:08:00.677Z,0.90
2023-04-14T20:12:54.493Z,1.45
2023-04-14T20:17:47.212Z,2.58
2023-04-14T20:22:41.832Z,1.20
2023-04-14T20:27:35.973Z,1.38
2023-04-14T20:32:29.921Z,1.17
2023-04-14T20:37:24.168Z,1.38
2023-04-14T20:42:18.235Z,1.00
2023-04-14T20:47:11.702Z,4.15
2023-04-14T20:52:06.153Z,1.08
2023-04-14T20:56:59.958Z,0.65
2023-04-14T21:01:53.568Z,1.90
2023-04-14T21:06:48.937Z,0.82
2023-04-14T21:11:42.448Z,0.80
2023-04-14T21:16:36.490Z,0.90
2023-04-14T21:21:30.388Z,0.90
2023-04-14T21:26:24.363Z,1.38
2023-04-14T21:31:17.546Z,0.80
2023-04-14T21:36:10.918Z,0.70
2023-04-14T21:41:04.242Z,1.00
2023-04-14T21:45:58.805Z,0.70
2023-04-14T21:50:52.495Z,1.00
2023-04-14T21:55:46.977Z,0.60
2023-04-14T22:00:42.134Z,0.77
2023-04-14T22:05:35.816Z,0.73
2023-04-14T22:10:32.724Z,0.90
2023-04-14T22:15:26.705Z,0.77
2023-04-14T22:20:20.105Z,0.75
2023-04-14T22:25:13.257Z,0.85
2023-04-14T22:30:09.731Z,0.63
2023-04-14T22:35:03.984Z,0.70
2023-04-14T22:39:57.063Z,0.93
2023-04-14T22:44:51.625Z,0.90
2023-04-14T22:49:45.424Z,1.27
2023-04-14T22:54:37.340Z,0.90
2023-04-14T22:59:30.712Z,0.80
2023-04-14T23:04:26.936Z,1.20
2023-04-14T23:09:21.098Z,1.20
2023-04-14T23:14:13.595Z,1.02
2023-04-14T23:19:07.555Z,1.10
2023-04-14T23:24:01.021Z,1.13
2023-04-14T23:28:54.871Z,1.13
2023-04-14T23:33:49.822Z,1.55
2023-04-14T23:38:42.444Z,1.40
2023-04-14T23:43:35.102Z,1.40
2023-04-14T23:48:28.721Z,1.20
2023-04-14T23:53:21.694Z,1.20
2023-04-14T23:58:26.106Z,1.20
